sensor_id;sensor_type;location;lat;lon;timestamp;P1;durP1;ratioP1;P2;durP2;ratioP2
68076;SDS011;54866;53.458;14.540;2023-01-24T00:01:43;26.20;;;13.70;;
68076;SDS011;54866;53.458;14.540;2023-01-24T00:04:13;21.90;;;13.40;;
68076;SDS011;54866;53.458;14.540;2023-01-24T00:06:43;24.20;;;13.50;;
68076;SDS011;54866;53.458;14.540;2023-01-24T00:09:12;18.70;;;12.50;;
68076;SDS011;54866;53.458;14.540;2023-01-24T00:11:42;22.00;;;12.80;;
68076;SDS011;54866;53.458;14.540;2023-01-24T00:14:12;16.00;;;10.90;;
68076;SDS011;54866;53.458;14.540;2023-01-24T00:16:41;16.20;;;10.80;;
68076;SDS011;54866;53.458;14.540;2023-01-24T00:19:11;21.70;;;11.60;;
68076;SDS011;54866;53.458;14.540;2023-01-24T00:21:41;15.80;;;9.90;;
68076;SDS011;54866;53.458;14.540;2023-01-24T00:24:10;17.70;;;10.50;;
68076;SDS011;54866;53.458;14.540;2023-01-24T00:26:40;18.40;;;12.50;;
68076;SDS011;54866;53.458;14.540;2023-01-24T00:29:09;17.80;;;10.40;;
68076;SDS011;54866;53.458;14.540;2023-01-24T00:31:39;19.60;;;10.60;;
68076;SDS011;54866;53.458;14.540;2023-01-24T00:34:08;20.20;;;10.70;;
68076;SDS011;54866;53.458;14.540;2023-01-24T00:36:38;13.10;;;8.50;;
68076;SDS011;54866;53.458;14.540;2023-01-24T00:39:08;15.10;;;10.10;;
68076;SDS011;54866;53.458;14.540;2023-01-24T00:41:39;18.90;;;11.00;;
68076;SDS011;54866;53.458;14.540;2023-01-24T00:44:08;18.50;;;8.00;;
68076;SDS011;54866;53.458;14.540;2023-01-24T00:46:38;19.80;;;10.50;;
68076;SDS011;54866;53.458;14.540;2023-01-24T00:49:08;16.80;;;9.20;;
68076;SDS011;54866;53.458;14.540;2023-01-24T00:51:38;23.80;;;13.60;;
68076;SDS011;54866;53.458;14.540;2023-01-24T00:54:07;30.10;;;13.80;;
68076;SDS011;54866;53.458;14.540;2023-01-24T00:56:37;30.80;;;14.80;;
68076;SDS011;54866;53.458;14.540;2023-01-24T00:59:06;25.00;;;13.70;;
68076;SDS011;54866;53.458;14.540;2023-01-24T01:01:36;36.10;;;17.50;;
68076;SDS011;54866;53.458;14.540;2023-01-24T01:04:06;39.70;;;17.00;;
68076;SDS011;54866;53.458;14.540;2023-01-24T01:06:36;35.40;;;15.30;;
68076;SDS011;54866;53.458;14.540;2023-01-24T01:09:06;47.00;;;17.30;;
68076;SDS011;54866;53.458;14.540;2023-01-24T01:11:35;36.50;;;15.80;;
68076;SDS011;54866;53.458;14.540;2023-01-24T01:14:08;41.00;;;16.10;;
68076;SDS011;54866;53.458;14.540;2023-01-24T01:16:38;51.50;;;18.20;;
68076;SDS011;54866;53.458;14.540;2023-01-24T01:19:08;47.90;;;16.90;;
68076;SDS011;54866;53.458;14.540;2023-01-24T01:21:38;45.70;;;17.80;;
68076;SDS011;54866;53.458;14.540;2023-01-24T01:24:10;44.30;;;19.30;;
68076;SDS011;54866;53.458;14.540;2023-01-24T01:26:40;46.90;;;19.00;;
68076;SDS011;54866;53.458;14.540;2023-01-24T01:29:10;39.40;;;17.90;;
68076;SDS011;54866;53.458;14.540;2023-01-24T01:31:39;50.10;;;18.90;;
68076;SDS011;54866;53.458;14.540;2023-01-24T01:34:09;42.10;;;18.60;;
68076;SDS011;54866;53.458;14.540;2023-01-24T01:36:39;53.20;;;20.20;;
68076;SDS011;54866;53.458;14.540;2023-01-24T01:39:09;42.40;;;15.70;;
68076;SDS011;54866;53.458;14.540;2023-01-24T01:41:38;41.20;;;17.80;;
68076;SDS011;54866;53.458;14.540;2023-01-24T01:44:21;39.60;;;16.50;;
68076;SDS011;54866;53.458;14.540;2023-01-24T01:47:13;42.10;;;15.40;;
68076;SDS011;54866;53.458;14.540;2023-01-24T01:49:48;48.00;;;17.50;;
68076;SDS011;54866;53.458;14.540;2023-01-24T01:52:22;45.60;;;19.80;;
68076;SDS011;54866;53.458;14.540;2023-01-24T01:54:55;42.80;;;18.30;;
68076;SDS011;54866;53.458;14.540;2023-01-24T01:57:30;40.70;;;15.80;;
68076;SDS011;54866;53.458;14.540;2023-01-24T02:00:03;43.40;;;16.40;;
68076;SDS011;54866;53.458;14.540;2023-01-24T02:02:37;40.40;;;15.60;;
68076;SDS011;54866;53.458;14.540;2023-01-24T02:05:10;43.60;;;16.30;;
68076;SDS011;54866;53.458;14.540;2023-01-24T02:07:42;34.60;;;15.10;;
68076;SDS011;54866;53.458;14.540;2023-01-24T02:10:16;36.30;;;15.60;;
68076;SDS011;54866;53.458;14.540;2023-01-24T02:12:47;30.30;;;12.70;;
68076;SDS011;54866;53.458;14.540;2023-01-24T02:15:21;43.90;;;17.00;;
68076;SDS011;54866;53.458;14.540;2023-01-24T02:18:09;27.30;;;13.60;;
68076;SDS011;54866;53.458;14.540;2023-01-24T02:20:39;40.20;;;14.30;;
68076;SDS011;54866;53.458;14.540;2023-01-24T02:23:14;38.60;;;16.20;;
68076;SDS011;54866;53.458;14.540;2023-01-24T02:28:32;38.40;;;16.10;;
68076;SDS011;54866;53.458;14.540;2023-01-24T02:31:02;34.30;;;16.40;;
68076;SDS011;54866;53.458;14.540;2023-01-24T02:33:33;39.90;;;16.20;;
68076;SDS011;54866;53.458;14.540;2023-01-24T02:36:17;31.70;;;14.20;;
68076;SDS011;54866;53.458;14.540;2023-01-24T02:38:53;40.00;;;15.50;;
68076;SDS011;54866;53.458;14.540;2023-01-24T02:41:28;29.90;;;15.50;;
68076;SDS011;54866;53.458;14.540;2023-01-24T02:44:03;38.30;;;16.10;;
68076;SDS011;54866;53.458;14.540;2023-01-24T02:46:38;34.60;;;14.00;;
68076;SDS011;54866;53.458;14.540;2023-01-24T02:49:12;34.20;;;16.70;;
68076;SDS011;54866;53.458;14.540;2023-01-24T02:51:42;34.80;;;14.50;;
68076;SDS011;54866;53.458;14.540;2023-01-24T02:54:29;31.40;;;13.90;;
68076;SDS011;54866;53.458;14.540;2023-01-24T02:56:58;33.50;;;14.30;;
68076;SDS011;54866;53.458;14.540;2023-01-24T02:59:46;35.20;;;15.20;;
68076;SDS011;54866;53.458;14.540;2023-01-24T03:02:15;31.40;;;13.40;;
68076;SDS011;54866;53.458;14.540;2023-01-24T03:04:45;24.20;;;12.80;;
68076;SDS011;54866;53.458;14.540;2023-01-24T03:07:14;28.20;;;13.20;;
68076;SDS011;54866;53.458;14.540;2023-01-24T03:09:44;26.80;;;13.30;;
68076;SDS011;54866;53.458;14.540;2023-01-24T03:12:14;28.80;;;13.00;;
68076;SDS011;54866;53.458;14.540;2023-01-24T03:15:01;26.70;;;11.30;;
68076;SDS011;54866;53.458;14.540;2023-01-24T03:17:49;27.60;;;13.40;;
68076;SDS011;54866;53.458;14.540;2023-01-24T03:20:36;31.00;;;13.90;;
68076;SDS011;54866;53.458;14.540;2023-01-24T03:23:23;31.80;;;14.80;;
68076;SDS011;54866;53.458;14.540;2023-01-24T03:26:11;24.60;;;14.20;;
68076;SDS011;54866;53.458;14.540;2023-01-24T03:28:58;25.70;;;13.00;;
68076;SDS011;54866;53.458;14.540;2023-01-24T03:31:45;24.00;;;12.50;;
68076;SDS011;54866;53.458;14.540;2023-01-24T03:34:33;25.80;;;14.30;;
68076;SDS011;54866;53.458;14.540;2023-01-24T03:37:12;22.30;;;12.20;;
68076;SDS011;54866;53.458;14.540;2023-01-24T03:39:41;21.10;;;12.10;;
68076;SDS011;54866;53.458;14.540;2023-01-24T03:42:26;21.10;;;11.20;;
68076;SDS011;54866;53.458;14.540;2023-01-24T03:44:56;22.10;;;11.20;;
68076;SDS011;54866;53.458;14.540;2023-01-24T03:47:25;23.40;;;12.30;;
68076;SDS011;54866;53.458;14.540;2023-01-24T03:49:55;20.10;;;11.00;;
68076;SDS011;54866;53.458;14.540;2023-01-24T03:52:42;21.10;;;11.90;;
68076;SDS011;54866;53.458;14.540;2023-01-24T03:55:12;22.20;;;11.70;;
68076;SDS011;54866;53.458;14.540;2023-01-24T03:57:41;20.10;;;10.10;;
68076;SDS011;54866;53.458;14.540;2023-01-24T04:00:13;21.50;;;11.30;;
68076;SDS011;54866;53.458;14.540;2023-01-24T04:02:43;25.50;;;11.70;;
68076;SDS011;54866;53.458;14.540;2023-01-24T04:05:13;20.30;;;11.10;;
68076;SDS011;54866;53.458;14.540;2023-01-24T04:07:42;17.70;;;10.20;;
68076;SDS011;54866;53.458;14.540;2023-01-24T04:10:12;15.30;;;8.70;;
68076;SDS011;54866;53.458;14.540;2023-01-24T04:12:43;17.40;;;9.40;;
68076;SDS011;54866;53.458;14.540;2023-01-24T04:15:15;21.50;;;10.70;;
68076;SDS011;54866;53.458;14.540;2023-01-24T04:17:46;23.10;;;11.30;;
68076;SDS011;54866;53.458;14.540;2023-01-24T04:20:16;23.00;;;10.20;;
68076;SDS011;54866;53.458;14.540;2023-01-24T04:22:46;20.00;;;11.50;;
68076;SDS011;54866;53.458;14.540;2023-01-24T04:25:16;14.70;;;9.90;;
68076;SDS011;54866;53.458;14.540;2023-01-24T04:27:46;15.40;;;9.40;;
68076;SDS011;54866;53.458;14.540;2023-01-24T04:32:45;15.50;;;8.90;;
68076;SDS011;54866;53.458;14.540;2023-01-24T04:35:16;16.00;;;9.50;;
68076;SDS011;54866;53.458;14.540;2023-01-24T04:37:47;15.50;;;9.90;;
68076;SDS011;54866;53.458;14.540;2023-01-24T04:40:17;15.90;;;9.70;;
68076;SDS011;54866;53.458;14.540;2023-01-24T04:42:47;14.50;;;8.40;;
68076;SDS011;54866;53.458;14.540;2023-01-24T04:45:16;13.80;;;8.60;;
68076;SDS011;54866;53.458;14.540;2023-01-24T04:47:46;14.90;;;10.00;;
68076;SDS011;54866;53.458;14.540;2023-01-24T04:50:16;14.80;;;8.70;;
68076;SDS011;54866;53.458;14.540;2023-01-24T04:52:45;15.30;;;8.50;;
68076;SDS011;54866;53.458;14.540;2023-01-24T04:55:15;17.50;;;10.50;;
68076;SDS011;54866;53.458;14.540;2023-01-24T04:57:44;15.50;;;9.30;;
68076;SDS011;54866;53.458;14.540;2023-01-24T05:00:15;13.00;;;8.80;;
68076;SDS011;54866;53.458;14.540;2023-01-24T05:02:45;18.00;;;9.10;;
68076;SDS011;54866;53.458;14.540;2023-01-24T05:05:17;15.10;;;8.30;;
68076;SDS011;54866;53.458;14.540;2023-01-24T05:07:47;12.70;;;7.70;;
68076;SDS011;54866;53.458;14.540;2023-01-24T05:10:16;15.80;;;9.50;;
68076;SDS011;54866;53.458;14.540;2023-01-24T05:12:47;15.70;;;9.00;;
68076;SDS011;54866;53.458;14.540;2023-01-24T05:15:17;17.10;;;10.10;;
68076;SDS011;54866;53.458;14.540;2023-01-24T05:17:49;17.00;;;9.20;;
68076;SDS011;54866;53.458;14.540;2023-01-24T05:20:18;15.00;;;8.80;;
68076;SDS011;54866;53.458;14.540;2023-01-24T05:22:48;21.50;;;11.40;;
68076;SDS011;54866;53.458;14.540;2023-01-24T05:25:17;15.30;;;8.60;;
68076;SDS011;54866;53.458;14.540;2023-01-24T05:27:47;15.00;;;9.00;;
68076;SDS011;54866;53.458;14.540;2023-01-24T05:30:17;15.10;;;9.30;;
68076;SDS011;54866;53.458;14.540;2023-01-24T05:32:46;17.60;;;9.90;;
68076;SDS011;54866;53.458;14.540;2023-01-24T05:35:16;17.30;;;9.90;;
68076;SDS011;54866;53.458;14.540;2023-01-24T05:37:47;17.10;;;9.50;;
68076;SDS011;54866;53.458;14.540;2023-01-24T05:40:17;18.40;;;10.60;;
68076;SDS011;54866;53.458;14.540;2023-01-24T05:42:47;18.70;;;11.00;;
68076;SDS011;54866;53.458;14.540;2023-01-24T05:45:16;15.50;;;9.20;;
68076;SDS011;54866;53.458;14.540;2023-01-24T05:47:46;18.90;;;10.20;;
68076;SDS011;54866;53.458;14.540;2023-01-24T05:50:16;14.70;;;9.60;;
68076;SDS011;54866;53.458;14.540;2023-01-24T05:52:45;16.60;;;8.60;;
68076;SDS011;54866;53.458;14.540;2023-01-24T05:55:15;19.10;;;9.80;;
68076;SDS011;54866;53.458;14.540;2023-01-24T05:57:44;14.90;;;8.30;;
68076;SDS011;54866;53.458;14.540;2023-01-24T06:00:15;16.70;;;10.20;;
68076;SDS011;54866;53.458;14.540;2023-01-24T06:02:45;16.70;;;9.70;;
68076;SDS011;54866;53.458;14.540;2023-01-24T06:05:15;16.30;;;9.60;;
68076;SDS011;54866;53.458;14.540;2023-01-24T06:07:44;15.10;;;10.20;;
68076;SDS011;54866;53.458;14.540;2023-01-24T06:10:14;19.80;;;10.10;;
68076;SDS011;54866;53.458;14.540;2023-01-24T06:12:44;14.90;;;9.50;;
68076;SDS011;54866;53.458;14.540;2023-01-24T06:15:13;16.20;;;9.20;;
68076;SDS011;54866;53.458;14.540;2023-01-24T06:17:43;16.70;;;9.00;;
68076;SDS011;54866;53.458;14.540;2023-01-24T06:20:13;15.40;;;9.20;;
68076;SDS011;54866;53.458;14.540;2023-01-24T06:22:45;16.60;;;9.00;;
68076;SDS011;54866;53.458;14.540;2023-01-24T06:25:20;13.60;;;8.10;;
68076;SDS011;54866;53.458;14.540;2023-01-24T06:27:52;14.50;;;9.40;;
68076;SDS011;54866;53.458;14.540;2023-01-24T06:30:22;13.50;;;7.00;;
68076;SDS011;54866;53.458;14.540;2023-01-24T06:32:56;15.70;;;8.70;;
68076;SDS011;54866;53.458;14.540;2023-01-24T06:35:36;14.70;;;8.20;;
68076;SDS011;54866;53.458;14.540;2023-01-24T06:38:19;23.40;;;12.40;;
68076;SDS011;54866;53.458;14.540;2023-01-24T06:40:51;21.60;;;11.50;;
68076;SDS011;54866;53.458;14.540;2023-01-24T06:43:24;18.70;;;11.50;;
68076;SDS011;54866;53.458;14.540;2023-01-24T06:45:54;17.70;;;9.60;;
68076;SDS011;54866;53.458;14.540;2023-01-24T06:48:24;13.60;;;9.20;;
68076;SDS011;54866;53.458;14.540;2023-01-24T06:50:54;13.90;;;8.20;;
68076;SDS011;54866;53.458;14.540;2023-01-24T06:53:24;16.30;;;9.10;;
68076;SDS011;54866;53.458;14.540;2023-01-24T06:55:53;15.40;;;8.10;;
68076;SDS011;54866;53.458;14.540;2023-01-24T06:58:23;13.70;;;8.80;;
68076;SDS011;54866;53.458;14.540;2023-01-24T07:00:52;15.40;;;9.50;;
68076;SDS011;54866;53.458;14.540;2023-01-24T07:03:22;13.30;;;8.30;;
68076;SDS011;54866;53.458;14.540;2023-01-24T07:05:51;15.00;;;9.20;;
68076;SDS011;54866;53.458;14.540;2023-01-24T07:08:21;15.00;;;10.40;;
68076;SDS011;54866;53.458;14.540;2023-01-24T07:10:51;14.60;;;9.30;;
68076;SDS011;54866;53.458;14.540;2023-01-24T07:13:20;12.90;;;7.80;;
68076;SDS011;54866;53.458;14.540;2023-01-24T07:15:50;15.80;;;9.60;;
68076;SDS011;54866;53.458;14.540;2023-01-24T07:18:20;18.60;;;10.80;;
68076;SDS011;54866;53.458;14.540;2023-01-24T07:20:50;17.90;;;10.40;;
68076;SDS011;54866;53.458;14.540;2023-01-24T07:23:22;13.90;;;8.30;;
68076;SDS011;54866;53.458;14.540;2023-01-24T07:25:55;16.10;;;8.60;;
68076;SDS011;54866;53.458;14.540;2023-01-24T07:28:25;16.20;;;10.40;;
68076;SDS011;54866;53.458;14.540;2023-01-24T07:30:54;16.20;;;9.10;;
68076;SDS011;54866;53.458;14.540;2023-01-24T07:33:24;18.80;;;12.00;;
68076;SDS011;54866;53.458;14.540;2023-01-24T07:35:53;18.50;;;11.70;;
68076;SDS011;54866;53.458;14.540;2023-01-24T07:38:23;18.50;;;10.90;;
68076;SDS011;54866;53.458;14.540;2023-01-24T07:40:53;16.80;;;9.60;;
68076;SDS011;54866;53.458;14.540;2023-01-24T07:43:23;16.80;;;11.10;;
68076;SDS011;54866;53.458;14.540;2023-01-24T07:45:53;17.30;;;9.80;;
68076;SDS011;54866;53.458;14.540;2023-01-24T07:48:22;23.90;;;12.40;;
68076;SDS011;54866;53.458;14.540;2023-01-24T07:50:52;22.40;;;12.00;;
68076;SDS011;54866;53.458;14.540;2023-01-24T07:53:24;19.70;;;12.10;;
68076;SDS011;54866;53.458;14.540;2023-01-24T07:55:57;16.50;;;11.70;;
68076;SDS011;54866;53.458;14.540;2023-01-24T07:58:27;17.70;;;11.30;;
68076;SDS011;54866;53.458;14.540;2023-01-24T08:00:58;17.40;;;11.00;;
68076;SDS011;54866;53.458;14.540;2023-01-24T08:03:27;18.30;;;10.70;;
68076;SDS011;54866;53.458;14.540;2023-01-24T08:05:57;20.40;;;11.30;;
68076;SDS011;54866;53.458;14.540;2023-01-24T08:08:26;18.40;;;11.30;;
68076;SDS011;54866;53.458;14.540;2023-01-24T08:10:56;19.50;;;10.60;;
68076;SDS011;54866;53.458;14.540;2023-01-24T08:13:26;13.70;;;10.00;;
68076;SDS011;54866;53.458;14.540;2023-01-24T08:15:55;24.10;;;12.10;;
68076;SDS011;54866;53.458;14.540;2023-01-24T08:18:26;19.10;;;11.10;;
68076;SDS011;54866;53.458;14.540;2023-01-24T08:20:56;20.00;;;10.80;;
68076;SDS011;54866;53.458;14.540;2023-01-24T08:23:26;23.40;;;12.50;;
68076;SDS011;54866;53.458;14.540;2023-01-24T08:25:56;21.40;;;10.50;;
68076;SDS011;54866;53.458;14.540;2023-01-24T08:28:26;21.90;;;10.80;;
68076;SDS011;54866;53.458;14.540;2023-01-24T08:30:58;24.30;;;12.00;;
68076;SDS011;54866;53.458;14.540;2023-01-24T08:33:27;23.00;;;11.70;;
68076;SDS011;54866;53.458;14.540;2023-01-24T08:35:59;23.90;;;13.30;;
68076;SDS011;54866;53.458;14.540;2023-01-24T08:38:29;24.00;;;13.30;;
68076;SDS011;54866;53.458;14.540;2023-01-24T08:40:58;50.70;;;18.20;;
68076;SDS011;54866;53.458;14.540;2023-01-24T08:43:32;55.00;;;20.70;;
68076;SDS011;54866;53.458;14.540;2023-01-24T08:46:01;43.50;;;18.70;;
68076;SDS011;54866;53.458;14.540;2023-01-24T08:48:31;42.30;;;19.10;;
68076;SDS011;54866;53.458;14.540;2023-01-24T08:51:03;40.30;;;17.40;;
68076;SDS011;54866;53.458;14.540;2023-01-24T08:53:34;45.70;;;17.90;;
68076;SDS011;54866;53.458;14.540;2023-01-24T08:56:04;44.70;;;18.20;;
68076;SDS011;54866;53.458;14.540;2023-01-24T08:58:34;54.00;;;20.70;;
68076;SDS011;54866;53.458;14.540;2023-01-24T09:01:06;56.50;;;19.00;;
68076;SDS011;54866;53.458;14.540;2023-01-24T09:03:37;47.90;;;19.60;;
68076;SDS011;54866;53.458;14.540;2023-01-24T09:06:07;52.00;;;20.40;;
68076;SDS011;54866;53.458;14.540;2023-01-24T09:08:36;59.20;;;23.20;;
68076;SDS011;54866;53.458;14.540;2023-01-24T09:11:06;57.80;;;21.00;;
68076;SDS011;54866;53.458;14.540;2023-01-24T09:13:36;57.10;;;21.20;;
68076;SDS011;54866;53.458;14.540;2023-01-24T09:16:06;46.50;;;20.30;;
68076;SDS011;54866;53.458;14.540;2023-01-24T09:18:35;46.30;;;19.70;;
68076;SDS011;54866;53.458;14.540;2023-01-24T09:21:05;54.80;;;21.60;;
68076;SDS011;54866;53.458;14.540;2023-01-24T09:23:35;46.90;;;17.20;;
68076;SDS011;54866;53.458;14.540;2023-01-24T09:26:04;42.30;;;18.90;;
68076;SDS011;54866;53.458;14.540;2023-01-24T09:28:34;43.90;;;18.60;;
68076;SDS011;54866;53.458;14.540;2023-01-24T09:31:06;43.40;;;18.00;;
68076;SDS011;54866;53.458;14.540;2023-01-24T09:33:37;45.20;;;19.30;;
68076;SDS011;54866;53.458;14.540;2023-01-24T09:36:07;46.90;;;18.70;;
68076;SDS011;54866;53.458;14.540;2023-01-24T09:38:37;38.20;;;19.70;;
68076;SDS011;54866;53.458;14.540;2023-01-24T09:41:13;44.10;;;18.10;;
68076;SDS011;54866;53.458;14.540;2023-01-24T09:43:54;36.80;;;15.10;;
68076;SDS011;54866;53.458;14.540;2023-01-24T09:46:30;45.50;;;20.60;;
68076;SDS011;54866;53.458;14.540;2023-01-24T09:49:12;44.90;;;20.90;;
68076;SDS011;54866;53.458;14.540;2023-01-24T09:51:45;46.90;;;18.50;;
68076;SDS011;54866;53.458;14.540;2023-01-24T09:54:21;41.70;;;18.90;;
68076;SDS011;54866;53.458;14.540;2023-01-24T09:56:57;45.60;;;19.50;;
68076;SDS011;54866;53.458;14.540;2023-01-24T09:59:29;42.50;;;18.90;;
68076;SDS011;54866;53.458;14.540;2023-01-24T10:02:12;49.90;;;22.80;;
68076;SDS011;54866;53.458;14.540;2023-01-24T10:04:45;49.00;;;19.90;;
68076;SDS011;54866;53.458;14.540;2023-01-24T10:07:28;59.40;;;22.90;;
68076;SDS011;54866;53.458;14.540;2023-01-24T10:10:13;67.30;;;25.60;;
68076;SDS011;54866;53.458;14.540;2023-01-24T10:12:57;78.90;;;28.00;;
68076;SDS011;54866;53.458;14.540;2023-01-24T10:15:39;95.80;;;34.90;;
68076;SDS011;54866;53.458;14.540;2023-01-24T10:18:20;101.00;;;36.60;;
68076;SDS011;54866;53.458;14.540;2023-01-24T10:21:04;90.90;;;31.60;;
68076;SDS011;54866;53.458;14.540;2023-01-24T10:23:43;109.80;;;36.30;;
68076;SDS011;54866;53.458;14.540;2023-01-24T10:26:17;102.30;;;36.20;;
68076;SDS011;54866;53.458;14.540;2023-01-24T10:28:49;110.80;;;43.10;;
68076;SDS011;54866;53.458;14.540;2023-01-24T10:31:21;117.50;;;40.90;;
68076;SDS011;54866;53.458;14.540;2023-01-24T10:33:56;124.00;;;44.40;;
68076;SDS011;54866;53.458;14.540;2023-01-24T10:36:37;105.20;;;38.00;;
68076;SDS011;54866;53.458;14.540;2023-01-24T10:39:10;108.40;;;37.40;;
68076;SDS011;54866;53.458;14.540;2023-01-24T10:41:40;121.30;;;41.90;;
68076;SDS011;54866;53.458;14.540;2023-01-24T10:44:12;101.90;;;36.10;;
68076;SDS011;54866;53.458;14.540;2023-01-24T10:46:46;105.00;;;41.80;;
68076;SDS011;54866;53.458;14.540;2023-01-24T10:49:25;84.90;;;33.70;;
68076;SDS011;54866;53.458;14.540;2023-01-24T10:52:13;96.30;;;34.70;;
68076;SDS011;54866;53.458;14.540;2023-01-24T10:54:45;90.50;;;31.60;;
68076;SDS011;54866;53.458;14.540;2023-01-24T11:00:17;93.60;;;35.40;;
68076;SDS011;54866;53.458;14.540;2023-01-24T11:02:52;94.20;;;31.70;;
68076;SDS011;54866;53.458;14.540;2023-01-24T11:05:23;99.70;;;35.30;;
68076;SDS011;54866;53.458;14.540;2023-01-24T11:08:02;90.80;;;32.30;;
68076;SDS011;54866;53.458;14.540;2023-01-24T11:10:34;77.10;;;29.90;;
68076;SDS011;54866;53.458;14.540;2023-01-24T11:15:53;67.80;;;27.60;;
68076;SDS011;54866;53.458;14.540;2023-01-24T11:18:29;57.50;;;22.70;;
68076;SDS011;54866;53.458;14.540;2023-01-24T11:21:08;55.20;;;24.80;;
68076;SDS011;54866;53.458;14.540;2023-01-24T11:23:40;52.30;;;21.90;;
68076;SDS011;54866;53.458;14.540;2023-01-24T11:28:58;48.10;;;21.00;;
68076;SDS011;54866;53.458;14.540;2023-01-24T11:31:31;36.50;;;16.80;;
68076;SDS011;54866;53.458;14.540;2023-01-24T11:34:10;45.40;;;19.50;;
68076;SDS011;54866;53.458;14.540;2023-01-24T11:36:50;40.80;;;19.50;;
68076;SDS011;54866;53.458;14.540;2023-01-24T11:39:34;36.40;;;16.00;;
68076;SDS011;54866;53.458;14.540;2023-01-24T11:42:13;40.10;;;17.10;;
68076;SDS011;54866;53.458;14.540;2023-01-24T11:45:03;31.00;;;13.50;;
68076;SDS011;54866;53.458;14.540;2023-01-24T11:47:49;44.50;;;18.40;;
68076;SDS011;54866;53.458;14.540;2023-01-24T11:50:27;40.00;;;17.20;;
68076;SDS011;54866;53.458;14.540;2023-01-24T11:53:12;33.70;;;14.70;;
68076;SDS011;54866;53.458;14.540;2023-01-24T11:56:08;30.50;;;15.80;;
68076;SDS011;54866;53.458;14.540;2023-01-24T12:02:14;30.70;;;16.90;;
68076;SDS011;54866;53.458;14.540;2023-01-24T12:05:03;30.00;;;14.50;;
68076;SDS011;54866;53.458;14.540;2023-01-24T12:07:47;34.30;;;14.60;;
68076;SDS011;54866;53.458;14.540;2023-01-24T12:10:24;33.90;;;14.90;;
68076;SDS011;54866;53.458;14.540;2023-01-24T12:13:02;36.10;;;14.70;;
68076;SDS011;54866;53.458;14.540;2023-01-24T12:15:43;36.20;;;16.20;;
68076;SDS011;54866;53.458;14.540;2023-01-24T12:18:34;30.20;;;14.60;;
68076;SDS011;54866;53.458;14.540;2023-01-24T12:21:11;29.50;;;14.70;;
68076;SDS011;54866;53.458;14.540;2023-01-24T12:23:42;22.00;;;12.40;;
68076;SDS011;54866;53.458;14.540;2023-01-24T12:26:21;23.60;;;12.60;;
68076;SDS011;54866;53.458;14.540;2023-01-24T12:28:57;21.60;;;9.70;;
68076;SDS011;54866;53.458;14.540;2023-01-24T12:31:38;18.40;;;9.40;;
68076;SDS011;54866;53.458;14.540;2023-01-24T12:34:16;14.90;;;8.00;;
68076;SDS011;54866;53.458;14.540;2023-01-24T12:36:59;20.70;;;10.60;;
68076;SDS011;54866;53.458;14.540;2023-01-24T12:39:35;16.50;;;8.60;;
68076;SDS011;54866;53.458;14.540;2023-01-24T12:42:11;15.50;;;7.80;;
68076;SDS011;54866;53.458;14.540;2023-01-24T12:44:47;14.00;;;6.50;;
68076;SDS011;54866;53.458;14.540;2023-01-24T12:47:28;10.30;;;6.50;;
68076;SDS011;54866;53.458;14.540;2023-01-24T12:50:08;13.10;;;8.10;;
68076;SDS011;54866;53.458;14.540;2023-01-24T12:52:51;15.90;;;9.30;;
68076;SDS011;54866;53.458;14.540;2023-01-24T12:55:27;11.10;;;6.40;;
68076;SDS011;54866;53.458;14.540;2023-01-24T12:58:03;13.70;;;7.80;;
68076;SDS011;54866;53.458;14.540;2023-01-24T13:00:42;21.30;;;9.30;;
68076;SDS011;54866;53.458;14.540;2023-01-24T13:06:35;12.10;;;7.10;;
68076;SDS011;54866;53.458;14.540;2023-01-24T13:09:13;18.90;;;7.90;;
68076;SDS011;54866;53.458;14.540;2023-01-24T13:11:51;13.00;;;7.90;;
68076;SDS011;54866;53.458;14.540;2023-01-24T13:14:24;12.10;;;8.20;;
68076;SDS011;54866;53.458;14.540;2023-01-24T13:17:07;15.40;;;7.80;;
68076;SDS011;54866;53.458;14.540;2023-01-24T13:22:23;14.70;;;8.10;;
68076;SDS011;54866;53.458;14.540;2023-01-24T13:28:05;16.60;;;9.60;;
68076;SDS011;54866;53.458;14.540;2023-01-24T13:30:43;18.20;;;10.30;;
68076;SDS011;54866;53.458;14.540;2023-01-24T13:33:21;16.00;;;8.50;;
68076;SDS011;54866;53.458;14.540;2023-01-24T13:35:55;16.80;;;8.60;;
68076;SDS011;54866;53.458;14.540;2023-01-24T13:38:25;15.20;;;8.40;;
68076;SDS011;54866;53.458;14.540;2023-01-24T13:41:12;14.90;;;9.50;;
68076;SDS011;54866;53.458;14.540;2023-01-24T13:43:57;13.10;;;8.80;;
68076;SDS011;54866;53.458;14.540;2023-01-24T13:52:36;16.80;;;9.30;;
68076;SDS011;54866;53.458;14.540;2023-01-24T14:01:15;18.90;;;9.50;;
68076;SDS011;54866;53.458;14.540;2023-01-24T14:03:52;19.20;;;10.40;;
68076;SDS011;54866;53.458;14.540;2023-01-24T14:06:27;15.50;;;9.10;;
68076;SDS011;54866;53.458;14.540;2023-01-24T14:09:18;17.30;;;10.00;;
68076;SDS011;54866;53.458;14.540;2023-01-24T14:11:55;20.60;;;10.70;;
68076;SDS011;54866;53.458;14.540;2023-01-24T14:14:32;18.80;;;9.90;;
68076;SDS011;54866;53.458;14.540;2023-01-24T14:19:56;21.30;;;10.10;;
68076;SDS011;54866;53.458;14.540;2023-01-24T14:22:33;16.10;;;9.80;;
68076;SDS011;54866;53.458;14.540;2023-01-24T14:31:07;16.00;;;9.10;;
68076;SDS011;54866;53.458;14.540;2023-01-24T14:33:47;14.50;;;8.20;;
68076;SDS011;54866;53.458;14.540;2023-01-24T14:36:22;19.00;;;9.70;;
68076;SDS011;54866;53.458;14.540;2023-01-24T14:39:11;15.30;;;8.90;;
68076;SDS011;54866;53.458;14.540;2023-01-24T14:41:49;14.90;;;8.80;;
68076;SDS011;54866;53.458;14.540;2023-01-24T14:44:22;18.80;;;11.10;;
68076;SDS011;54866;53.458;14.540;2023-01-24T14:46:53;12.80;;;6.80;;
68076;SDS011;54866;53.458;14.540;2023-01-24T14:49:26;14.60;;;9.00;;
68076;SDS011;54866;53.458;14.540;2023-01-24T14:54:26;13.40;;;8.20;;
68076;SDS011;54866;53.458;14.540;2023-01-24T14:56:56;17.10;;;8.00;;
68076;SDS011;54866;53.458;14.540;2023-01-24T14:59:25;15.70;;;9.10;;
68076;SDS011;54866;53.458;14.540;2023-01-24T15:01:55;14.30;;;8.10;;
68076;SDS011;54866;53.458;14.540;2023-01-24T15:04:25;17.90;;;10.50;;
68076;SDS011;54866;53.458;14.540;2023-01-24T15:07:06;14.90;;;7.90;;
68076;SDS011;54866;53.458;14.540;2023-01-24T15:09:40;18.20;;;9.80;;
68076;SDS011;54866;53.458;14.540;2023-01-24T15:12:17;16.10;;;9.50;;
68076;SDS011;54866;53.458;14.540;2023-01-24T15:14:54;15.30;;;9.30;;
68076;SDS011;54866;53.458;14.540;2023-01-24T15:17:25;16.00;;;8.40;;
68076;SDS011;54866;53.458;14.540;2023-01-24T15:19:57;17.90;;;10.30;;
68076;SDS011;54866;53.458;14.540;2023-01-24T15:22:36;16.00;;;9.60;;
68076;SDS011;54866;53.458;14.540;2023-01-24T15:25:17;18.50;;;7.60;;
68076;SDS011;54866;53.458;14.540;2023-01-24T15:27:48;19.00;;;9.80;;
68076;SDS011;54866;53.458;14.540;2023-01-24T15:30:19;20.90;;;12.40;;
68076;SDS011;54866;53.458;14.540;2023-01-24T15:32:49;20.10;;;10.30;;
68076;SDS011;54866;53.458;14.540;2023-01-24T15:35:28;14.50;;;8.10;;
68076;SDS011;54866;53.458;14.540;2023-01-24T15:38:10;16.10;;;8.20;;
68076;SDS011;54866;53.458;14.540;2023-01-24T15:40:50;13.30;;;7.50;;